createdAt,value
2022-10-11T00:04:25.073Z,2.23
2022-10-11T00:10:19.599Z,2.97
2022-10-11T00:16:14.566Z,2.20
2022-10-11T00:22:09.648Z,2.73
2022-10-11T00:28:02.536Z,2.30
2022-10-11T00:33:56.379Z,2.87
2022-10-11T00:39:51.164Z,2.67
2022-10-11T00:46:26.433Z,2.10
2022-10-11T00:52:29.379Z,2.57
2022-10-11T00:58:25.326Z,2.20
2022-10-11T01:04:18.719Z,2.10
2022-10-11T01:10:12.455Z,3.27
2022-10-11T01:16:14.582Z,2.67
2022-10-11T01:22:21.313Z,2.00
2022-10-11T01:28:27.965Z,2.47
2022-10-11T01:34:28.579Z,2.30
2022-10-11T01:40:25.848Z,1.97
2022-10-11T01:46:20.653Z,3.07
2022-10-11T01:52:15.371Z,2.10
2022-10-11T01:58:16.146Z,2.03
2022-10-11T02:04:18.414Z,3.40
2022-10-11T02:10:19.418Z,2.40
2022-10-11T02:16:15.779Z,2.30
2022-10-11T02:22:14.043Z,2.67
2022-10-11T02:28:12.267Z,2.27
2022-10-11T02:34:12.962Z,2.93
2022-10-11T02:40:13.971Z,2.13
2022-10-11T02:46:10.584Z,2.47
2022-10-11T02:52:07.094Z,2.20
2022-10-11T02:58:00.358Z,2.70
2022-10-11T03:03:54.538Z,2.20
2022-10-11T03:09:47.835Z,2.53
2022-10-11T03:15:41.168Z,2.40
2022-10-11T03:21:36.257Z,2.43
2022-10-11T03:27:29.562Z,2.00
2022-10-11T03:33:22.829Z,2.23
2022-10-11T03:39:17.743Z,1.80
2022-10-11T03:45:12.002Z,2.47
2022-10-11T03:51:05.387Z,2.23
2022-10-11T03:56:59.986Z,2.53
2022-10-11T04:02:53.275Z,1.83
2022-10-11T04:08:46.109Z,2.03
2022-10-11T04:14:40.870Z,2.63
2022-10-11T04:20:34.223Z,2.47
2022-10-11T04:26:27.970Z,2.07
2022-10-11T04:32:22.586Z,2.03
2022-10-11T04:38:16.171Z,2.77
2022-10-11T04:44:09.242Z,2.60
2022-10-11T04:50:04.375Z,2.27
2022-10-11T04:56:00.930Z,2.00
2022-10-11T05:01:54.414Z,2.27
2022-10-11T05:07:49.116Z,2.23
2022-10-11T05:13:42.418Z,2.03
2022-10-11T05:19:35.926Z,2.60
2022-10-11T05:25:30.661Z,2.83
2022-10-11T05:31:24.265Z,2.70
2022-10-11T05:37:17.589Z,2.30
2022-10-11T05:43:12.481Z,2.20
2022-10-11T05:49:05.895Z,2.40
2022-10-11T05:54:59.150Z,2.37
2022-10-11T06:00:53.934Z,2.70
2022-10-11T06:06:47.720Z,1.70
2022-10-11T06:12:41.068Z,1.90
2022-10-11T06:18:35.810Z,3.70
2022-10-11T06:24:29.185Z,2.10
2022-10-11T06:30:22.140Z,2.60
2022-10-11T06:36:17.187Z,3.10
2022-10-11T06:42:11.492Z,2.10
2022-10-11T06:48:06.162Z,2.57
2022-10-11T06:54:02.185Z,2.30
2022-10-11T06:59:55.507Z,3.07
2022-10-11T07:05:48.746Z,1.90
2022-10-11T07:11:43.385Z,2.70
2022-10-11T07:17:36.727Z,2.50
2022-10-11T07:23:30.009Z,2.70
2022-10-11T07:29:24.734Z,2.57
2022-10-11T07:35:18.154Z,2.60
2022-10-11T07:41:11.903Z,3.23
2022-10-11T07:47:11.097Z,3.27
2022-10-11T07:53:04.929Z,2.50
2022-10-11T07:58:59.915Z,3.03
2022-10-11T08:04:54.672Z,2.33
2022-10-11T08:10:48.046Z,3.77
2022-10-11T08:16:41.859Z,3.63
2022-10-11T08:22:36.717Z,3.10
2022-10-11T08:28:29.723Z,2.50
2022-10-11T08:34:23.237Z,2.73
2022-10-11T08:40:22.431Z,2.90
2022-10-11T08:46:17.628Z,3.50
2022-10-11T08:52:16.379Z,2.93
2022-10-11T08:58:14.470Z,2.77
2022-10-11T09:04:07.797Z,1.70
2022-10-11T09:10:10.980Z,1.80
2022-10-11T09:16:17.665Z,2.63
2022-10-11T09:22:20.164Z,2.80
2022-10-11T09:28:23.407Z,2.57
2022-10-11T09:34:18.070Z,2.37
2022-10-11T09:40:27.026Z,2.23
2022-10-11T09:46:24.315Z,2.30
2022-10-11T09:52:21.131Z,2.30
2022-10-11T09:58:33.724Z,2.37
2022-10-11T10:04:27.040Z,2.47
2022-10-11T10:10:38.950Z,2.30
2022-10-11T10:16:34.138Z,2.43
2022-10-11T10:22:30.820Z,3.77
2022-10-11T10:28:28.573Z,3.00
2022-10-11T10:34:26.459Z,1.80
2022-10-11T10:40:24.259Z,2.23
2022-10-11T10:46:41.562Z,2.70
2022-10-11T10:52:53.599Z,2.33
2022-10-11T10:59:07.037Z,2.70
2022-10-11T11:05:10.071Z,2.67
2022-10-11T11:11:14.384Z,2.40
2022-10-11T11:17:17.416Z,3.00
2022-10-11T11:23:23.742Z,2.40
2022-10-11T11:29:29.275Z,1.93
2022-10-11T11:35:30.641Z,2.17
2022-10-11T11:41:29.817Z,3.33
2022-10-11T11:47:26.591Z,1.90
2022-10-11T11:53:26.037Z,2.50
2022-10-11T11:59:26.422Z,1.93
2022-10-11T12:05:22.602Z,2.20
2022-10-11T12:11:22.191Z,2.67
2022-10-11T12:17:20.143Z,1.90
2022-10-11T12:23:43.098Z,1.57
2022-10-11T12:29:48.115Z,2.40
2022-10-11T12:35:57.023Z,2.00
2022-10-11T12:41:53.588Z,1.87
2022-10-11T12:47:53.417Z,3.37
2022-10-11T12:54:28.236Z,2.00
2022-10-11T13:00:29.502Z,1.17
2022-10-11T13:06:25.587Z,1.90
2022-10-11T13:12:24.288Z,1.77
2022-10-11T13:18:19.005Z,1.93
2022-10-11T13:24:15.496Z,2.30
2022-10-11T13:30:18.488Z,1.93
2022-10-11T13:36:18.006Z,1.57
2022-10-11T13:42:14.824Z,1.97
2022-10-11T13:48:15.946Z,2.27
2022-10-11T13:54:13.731Z,1.70
2022-10-11T14:00:25.444Z,2.10
2022-10-11T14:06:20.203Z,2.83
2022-10-11T14:12:31.015Z,2.00
2022-10-11T14:18:36.151Z,2.53
2022-10-11T14:24:30.424Z,2.50
2022-10-11T14:30:27.452Z,2.33
2022-10-11T14:36:22.864Z,1.40
2022-10-11T14:42:17.528Z,1.63
2022-10-11T14:48:10.814Z,1.87
2022-10-11T14:54:04.319Z,2.00
2022-10-11T14:59:59.005Z,1.73
2022-10-11T15:05:52.246Z,2.37
2022-10-11T15:11:45.740Z,1.90
2022-10-11T15:17:40.619Z,2.10
2022-10-11T15:23:33.861Z,2.33
2022-10-11T15:29:26.875Z,2.03
2022-10-11T15:35:22.839Z,1.80
2022-10-11T15:41:19.172Z,2.03
2022-10-11T15:47:12.727Z,2.00
2022-10-11T15:53:09.220Z,1.40
2022-10-11T15:59:02.109Z,2.23
2022-10-11T16:04:55.390Z,1.33
2022-10-11T16:10:49.895Z,2.97
2022-10-11T16:16:42.894Z,1.80
2022-10-11T16:22:36.972Z,2.33
2022-10-11T16:28:31.602Z,2.50
2022-10-11T16:34:24.868Z,2.13
2022-10-11T16:40:21.901Z,2.77
2022-10-11T16:46:16.646Z,2.23
2022-10-11T16:52:11.066Z,2.13
2022-10-11T16:58:04.394Z,2.20
2022-10-11T17:03:58.957Z,1.70
2022-10-11T17:09:53.749Z,2.17
2022-10-11T17:15:47.107Z,2.57
2022-10-11T17:21:43.429Z,2.30
2022-10-11T17:27:36.416Z,2.63
2022-10-11T17:33:29.856Z,2.47
2022-10-11T17:39:25.701Z,1.83
2022-10-11T17:45:19.622Z,2.33
2022-10-11T17:51:15.451Z,2.27
2022-10-11T17:57:09.720Z,2.30
2022-10-11T18:03:03.235Z,3.17
2022-10-11T18:08:57.545Z,4.63
2022-10-11T18:14:52.399Z,4.57
2022-10-11T18:20:49.804Z,4.60
2022-10-11T18:26:44.214Z,3.90
2022-10-11T18:32:38.676Z,2.77
2022-10-11T18:38:32.437Z,3.43
2022-10-11T18:44:25.683Z,2.97
2022-10-11T18:50:20.779Z,3.23
2022-10-11T18:56:15.551Z,3.60
2022-10-11T19:02:12.601Z,4.27
2022-10-11T19:08:07.760Z,5.17
2022-10-11T19:14:03.598Z,4.67
2022-10-11T19:19:59.917Z,3.90
2022-10-11T19:25:57.962Z,6.27
2022-10-11T19:31:53.662Z,5.60
2022-10-11T19:37:47.583Z,5.00
2022-10-11T19:43:42.456Z,4.50
2022-10-11T19:49:35.855Z,3.73
2022-10-11T19:55:29.225Z,3.80
2022-10-11T20:01:26.279Z,4.50
2022-10-11T20:07:19.649Z,3.87
2022-10-11T20:13:12.931Z,3.43
2022-10-11T20:19:07.574Z,4.20
2022-10-11T20:25:00.842Z,3.90
2022-10-11T20:30:54.170Z,3.50
2022-10-11T20:36:49.386Z,3.53
2022-10-11T20:42:42.834Z,4.20
2022-10-11T20:48:37.223Z,4.80
2022-10-11T20:54:34.469Z,4.70
2022-10-11T21:00:27.457Z,5.70
2022-10-11T21:06:20.846Z,5.20
2022-10-11T21:12:15.772Z,5.83
2022-10-11T21:18:08.755Z,4.57
2022-10-11T21:24:03.501Z,4.60
2022-10-11T21:29:58.183Z,5.50
2022-10-11T21:35:51.552Z,5.90
2022-10-11T21:41:44.878Z,5.10
2022-10-11T21:47:39.925Z,5.80
2022-10-11T21:53:32.915Z,6.17
2022-10-11T21:59:25.954Z,6.40
2022-10-11T22:05:20.612Z,6.13
2022-10-11T22:11:14.156Z,4.67
2022-10-11T22:17:07.454Z,5.20
2022-10-11T22:23:02.367Z,5.33
2022-10-11T22:28:55.701Z,3.70
2022-10-11T22:34:48.980Z,4.30
2022-10-11T22:40:43.594Z,3.67
2022-10-11T22:46:37.008Z,3.17
2022-10-11T22:52:30.349Z,3.60
2022-10-11T22:58:24.605Z,3.30
2022-10-11T23:04:18.706Z,3.30
2022-10-11T23:10:12.090Z,3.40
2022-10-11T23:16:11.209Z,3.50
2022-10-11T23:22:04.806Z,3.67
2022-10-11T23:28:00.471Z,3.13
2022-10-11T23:33:55.166Z,3.00
2022-10-11T23:39:48.619Z,3.13
2022-10-11T23:45:41.931Z,2.87
2022-10-11T23:51:36.325Z,2.57
2022-10-11T23:57:29.586Z,2.40
